Time;durP1;ratioP1;P1;durP2;ratioP2;P2;SDS_P1;SDS_P2;PMS_P1;PMS_P2;Temp;Humidity;BMP_temperature;BMP_pressure;BME280_temperature;BME280_humidity;BME280_pressure;Samples;Min_cycle;Max_cycle;Signal;HPM_P1;HPM_P2
2023/11/15 00:00:40;;;;;;;;;0.00;0.00;;;;;16.86;100.00;101012.72;2082622;28;46311;-51
2023/11/15 00:01:42;;;;;;;;;1.67;1.67;;;;;16.85;100.00;101011.00;2105697;28;46428;-51
2023/11/15 00:02:43;;;;;;;;;1.25;1.25;;;;;16.85;100.00;101019.03;2099407;28;46871;-53
2023/11/15 00:03:43;;;;;;;;;2.00;2.00;;;;;16.82;100.00;101003.97;2098477;28;45993;-53
2023/11/15 00:04:43;;;;;;;;;0.00;0.00;;;;;16.84;100.00;101015.47;2102655;28;46312;-52
2023/11/15 00:05:44;;;;;;;;;1.00;0.00;;;;;16.84;100.00;101014.63;2103517;28;46262;-51
2023/11/15 00:06:44;;;;;;;;;1.67;0.00;;;;;16.84;100.00;101020.84;2105909;28;47114;-50
2023/11/15 00:07:45;;;;;;;;;2.00;2.00;;;;;16.84;100.00;101017.28;2105758;28;46296;-47
2023/11/15 00:08:45;;;;;;;;;1.00;1.00;;;;;16.82;100.00;101014.69;2104743;27;46012;-54
2023/11/15 00:09:45;;;;;;;;;2.67;1.00;;;;;16.74;100.00;101019.50;2105633;28;46358;-52
2023/11/15 00:10:46;;;;;;;;;2.00;1.00;;;;;16.78;100.00;101021.13;2088413;28;46920;-53
2023/11/15 00:11:49;;;;;;;;;0.00;0.00;;;;;16.80;100.00;101027.28;2088163;28;46602;-55
2023/11/15 00:12:49;;;;;;;;;0.00;0.00;;;;;16.81;100.00;101025.47;2098203;28;46577;-52
2023/11/15 00:13:50;;;;;;;;;1.00;1.00;;;;;16.79;100.00;101024.66;2102157;28;47021;-50
2023/11/15 00:14:52;;;;;;;;;0.00;0.00;;;;;16.80;100.00;101026.41;2105778;28;46354;-53
2023/11/15 00:15:52;;;;;;;;;4.00;1.00;;;;;16.70;100.00;101024.13;2102362;28;46331;-55
2023/11/15 00:16:52;;;;;;;;;0.67;0.67;;;;;16.75;100.00;101023.91;2105673;28;46438;-53
2023/11/15 00:17:53;;;;;;;;;1.67;0.33;;;;;16.79;100.00;101022.00;2106272;28;46463;-53
2023/11/15 00:18:53;;;;;;;;;2.67;1.00;;;;;16.77;100.00;101028.28;2105615;28;46223;-49
2023/11/15 00:19:53;;;;;;;;;0.00;0.00;;;;;16.79;100.00;101025.53;2106101;28;46228;-50
2023/11/15 00:20:54;;;;;;;;;1.00;1.00;;;;;16.79;100.00;101019.31;2100475;28;46334;-55
2023/11/15 00:21:54;;;;;;;;;0.00;0.00;;;;;16.77;100.00;101022.94;2099302;28;46490;-52
2023/11/15 00:22:54;;;;;;;;;1.33;0.33;;;;;16.80;100.00;101026.41;2103421;28;46305;-53
2023/11/15 00:23:55;;;;;;;;;2.67;0.00;;;;;16.80;100.00;101026.41;2105475;28;46986;-55
2023/11/15 00:24:55;;;;;;;;;1.00;0.00;;;;;16.79;100.00;101028.22;2105081;28;46389;-54
2023/11/15 00:25:55;;;;;;;;;1.33;0.33;;;;;16.80;100.00;101034.47;2104752;28;46488;-53
2023/11/15 00:26:57;;;;;;;;;2.33;0.00;;;;;16.79;100.00;101036.25;2105789;28;46147;-51
2023/11/15 00:27:57;;;;;;;;;1.00;1.00;;;;;16.78;100.00;101031.84;2079143;28;46611;-54
2023/11/15 00:28:58;;;;;;;;;1.00;0.33;;;;;16.79;100.00;101032.72;2079238;28;46948;-53
2023/11/15 00:30:00;;;;;;;;;2.33;2.00;;;;;16.79;100.00;101038.94;2105795;28;46349;-52
2023/11/15 00:31:01;;;;;;;;;1.50;0.25;;;;;16.78;100.00;101029.16;2105578;28;46700;-49
2023/11/15 00:32:01;;;;;;;;;3.00;0.00;;;;;16.77;100.00;101028.28;2105503;28;46430;-49
2023/11/15 00:33:02;;;;;;;;;1.67;0.00;;;;;16.76;100.00;101039.91;2105795;28;46263;-52
2023/11/15 00:34:05;;;;;;;;;3.00;1.00;;;;;16.76;100.00;101039.91;2096391;28;46472;-51
2023/11/15 00:35:06;;;;;;;;;0.25;0.25;;;;;16.75;100.00;101042.66;2097341;28;46436;-53
2023/11/15 00:36:11;;;;;;;;;0.75;0.50;;;;;16.65;100.00;101039.50;2105703;28;46956;-49
2023/11/15 00:37:11;;;;;;;;;3.00;1.50;;;;;16.73;100.00;101045.41;2103298;27;46531;-52
2023/11/15 00:38:12;;;;;;;;;0.33;0.33;;;;;16.74;100.00;101038.25;2103907;28;46837;-52
2023/11/15 00:39:12;;;;;;;;;1.33;1.33;;;;;16.73;100.00;101045.41;2104402;28;46818;-54
2023/11/15 00:40:16;;;;;;;;;2.00;1.00;;;;;16.72;100.00;101043.69;2105640;27;46363;-56
2023/11/15 00:41:16;;;;;;;;;1.50;1.50;;;;;16.71;100.00;101039.25;2105665;28;46950;-53
2023/11/15 00:42:16;;;;;;;;;2.33;1.00;;;;;16.73;100.00;101047.22;2105656;27;46895;-55
2023/11/15 00:43:18;;;;;;;;;2.00;2.00;;;;;16.73;100.00;101058.81;2105633;27;46637;-53
2023/11/15 00:44:19;;;;;;;;;0.00;0.00;;;;;16.72;100.00;101050.84;2105426;28;46572;-55
2023/11/15 00:45:23;;;;;;;;;1.33;1.33;;;;;16.73;100.00;101064.19;2105411;28;46794;-52
2023/11/15 00:46:24;;;;;;;;;0.50;0.50;;;;;16.73;100.00;101074.03;2111502;27;46791;-53
2023/11/15 00:47:24;;;;;;;;;1.67;1.00;;;;;16.73;100.00;101072.22;2105752;27;46271;-53
2023/11/15 00:48:24;;;;;;;;;1.00;0.00;;;;;16.73;100.00;101061.50;2104956;28;46370;-49
2023/11/15 00:49:25;;;;;;;;;1.00;1.00;;;;;16.72;100.00;101062.44;2105379;28;46263;-55
2023/11/15 00:50:25;;;;;;;;;4.67;1.67;;;;;16.74;100.00;101062.38;2105345;28;46289;-54
2023/11/15 00:51:25;;;;;;;;;0.33;0.33;;;;;16.63;100.00;101068.13;2105109;28;46197;-50
2023/11/15 00:52:26;;;;;;;;;1.33;0.33;;;;;16.70;100.00;101072.34;2105677;27;46650;-48
2023/11/15 00:53:26;;;;;;;;;2.33;1.33;;;;;16.69;100.00;101070.59;2106896;27;46868;-53
2023/11/15 00:54:27;;;;;;;;;2.33;2.00;;;;;16.63;100.00;101077.97;2099837;28;46672;-51
2023/11/15 00:55:27;;;;;;;;;0.00;0.00;;;;;16.68;100.00;101079.59;2105334;28;46309;-52
2023/11/15 00:56:28;;;;;;;;;1.00;1.00;;;;;16.70;100.00;101083.06;2105003;28;46968;-52
2023/11/15 00:57:28;;;;;;;;;1.33;1.00;;;;;16.71;100.00;101083.94;2105557;28;46489;-49
2023/11/15 00:58:30;;;;;;;;;0.00;0.00;;;;;16.71;100.00;101086.63;2099077;28;46752;-51
2023/11/15 00:59:37;;;;;;;;;2.50;0.75;;;;;16.72;100.00;101083.00;2098941;28;46774;-48
2023/11/15 01:00:47;;;;;;;;;4.00;1.00;;;;;16.72;100.00;101081.19;2105337;28;46418;-50
2023/11/15 01:01:57;;;;;;;;;2.50;1.50;;;;;16.71;100.00;101079.44;2094739;28;46672;-55
2023/11/15 01:02:58;;;;;;;;;0.25;0.25;;;;;16.70;100.00;101083.06;2097692;28;47035;-52
2023/11/15 01:03:59;;;;;;;;;2.25;1.50;;;;;16.70;100.00;101085.75;2105819;28;46427;-48
2023/11/15 01:05:00;;;;;;;;;0.00;0.00;;;;;16.71;100.00;101087.50;2105661;28;46880;-51
2023/11/15 01:06:01;;;;;;;;;0.75;0.75;;;;;16.71;100.00;101091.97;2105664;28;46903;-49
2023/11/15 01:07:01;;;;;;;;;2.00;0.75;;;;;16.71;100.00;101094.66;2105073;28;46391;-50
2023/11/15 01:08:04;;;;;;;;;0.00;0.00;;;;;16.72;100.00;101093.72;2100872;28;46084;-49
2023/11/15 01:09:07;;;;;;;;;1.75;0.75;;;;;16.71;100.00;101091.97;2104659;28;46682;-47
2023/11/15 01:10:09;;;;;;;;;0.75;0.75;;;;;16.66;100.00;101091.28;2097268;28;46546;-52
2023/11/15 01:11:10;;;;;;;;;0.50;0.00;;;;;16.71;100.00;101094.66;2096872;28;46245;-50
2023/11/15 01:12:10;;;;;;;;;1.33;0.67;;;;;16.72;100.00;101093.72;2092443;28;46800;-51
2023/11/15 01:13:12;;;;;;;;;1.33;0.67;;;;;16.66;100.00;101091.28;2096635;28;45247;-53
2023/11/15 01:14:13;;;;;;;;;0.00;0.00;;;;;16.63;100.00;101092.25;2095313;28;46902;-54
2023/11/15 01:15:13;;;;;;;;;0.00;0.00;;;;;16.63;100.00;101099.41;2089164;28;46268;-50
2023/11/15 01:16:14;;;;;;;;;0.00;0.00;;;;;16.68;100.00;101101.03;2092734;28;46387;-49
2023/11/15 01:17:14;;;;;;;;;2.00;1.00;;;;;16.62;100.00;101095.00;2096855;28;46517;-53
2023/11/15 01:18:15;;;;;;;;;0.00;0.00;;;;;16.64;100.00;101101.16;2101489;28;46195;-53
2023/11/15 01:19:15;;;;;;;;;0.00;0.00;;;;;16.67;100.00;101103.75;2101590;28;46186;-52
2023/11/15 01:20:16;;;;;;;;;2.00;0.67;;;;;16.69;100.00;101105.44;2096943;28;46802;-50
2023/11/15 01:21:18;;;;;;;;;1.67;1.00;;;;;16.69;100.00;101108.13;2105519;28;46346;-54
2023/11/15 01:22:18;;;;;;;;;0.75;0.75;;;;;16.71;100.00;101110.75;2096326;28;46443;-52
2023/11/15 01:23:19;;;;;;;;;3.67;1.00;;;;;16.72;100.00;101109.81;2098788;28;46163;-55
2023/11/15 01:24:19;;;;;;;;;0.00;0.00;;;;;16.72;100.00;101104.44;2105289;27;46708;-49
2023/11/15 01:25:20;;;;;;;;;0.67;0.00;;;;;16.72;100.00;101116.03;2100998;28;46726;-54
2023/11/15 01:26:21;;;;;;;;;1.00;0.50;;;;;16.71;100.00;101116.97;2105157;28;46593;-49
2023/11/15 01:27:21;;;;;;;;;2.67;0.67;;;;;16.72;100.00;101115.16;2094577;28;45691;-48
2023/11/15 01:28:22;;;;;;;;;1.00;1.00;;;;;16.71;100.00;101105.38;2084881;28;46364;-50
2023/11/15 01:29:22;;;;;;;;;1.00;1.00;;;;;16.68;100.00;101111.75;2085469;28;46398;-52
2023/11/15 01:30:23;;;;;;;;;1.67;1.00;;;;;16.65;100.00;101114.53;2094720;28;46294;-52
2023/11/15 01:31:24;;;;;;;;;2.00;2.00;;;;;16.72;100.00;101110.69;2103508;28;46543;-50
2023/11/15 01:32:24;;;;;;;;;1.00;1.00;;;;;16.72;100.00;101110.69;2101499;28;46752;-53
2023/11/15 01:33:25;;;;;;;;;1.00;0.00;;;;;16.73;100.00;101112.41;2103431;27;46503;-52
2023/11/15 01:34:25;;;;;;;;;0.75;0.75;;;;;16.73;100.00;101114.22;2104556;28;46434;-50
2023/11/15 01:35:26;;;;;;;;;2.00;1.00;;;;;16.72;100.00;101116.03;2105274;28;46434;-52
2023/11/15 01:36:27;;;;;;;;;0.00;0.00;;;;;16.71;100.00;101111.63;2105153;28;46842;-53
2023/11/15 01:37:28;;;;;;;;;1.00;0.25;;;;;16.71;100.00;101113.41;2105107;28;46461;-51
2023/11/15 01:38:29;;;;;;;;;1.67;0.67;;;;;16.71;100.00;101106.25;2105048;28;46414;-51
2023/11/15 01:39:29;;;;;;;;;1.50;0.50;;;;;16.71;100.00;101100.91;2104941;28;46248;-51
2023/11/15 01:40:34;;;;;;;;;1.00;0.67;;;;;16.72;100.00;101112.47;2105326;28;46738;-50
2023/11/15 01:41:34;;;;;;;;;1.25;0.00;;;;;16.73;100.00;101108.88;2104972;28;46658;-51
2023/11/15 01:42:34;;;;;;;;;0.33;0.33;;;;;16.72;100.00;101110.69;2094451;28;45848;-55
2023/11/15 01:43:35;;;;;;;;;0.00;0.00;;;;;16.73;100.00;101119.59;2089969;28;46388;-51
2023/11/15 01:44:35;;;;;;;;;2.67;0.33;;;;;16.72;100.00;101118.72;2100576;28;46602;-50
2023/11/15 01:45:36;;;;;;;;;2.33;1.00;;;;;16.71;100.00;101116.09;2098584;28;46237;-49
2023/11/15 01:46:36;;;;;;;;;0.00;0.00;;;;;16.70;100.00;101117.03;2104211;28;46133;-54
2023/11/15 01:47:37;;;;;;;;;1.50;1.00;;;;;16.61;100.00;101109.31;2101315;28;46431;-54
2023/11/15 01:48:38;;;;;;;;;0.00;0.00;;;;;16.68;100.00;101118.91;2105421;28;46453;-51
2023/11/15 01:49:39;;;;;;;;;1.75;1.75;;;;;16.67;100.00;101122.50;2099368;28;46643;-52
2023/11/15 01:50:40;;;;;;;;;1.00;0.75;;;;;16.65;100.00;101119.88;2103960;28;46617;-52
2023/11/15 01:51:40;;;;;;;;;1.00;0.00;;;;;16.68;100.00;101119.78;2104961;28;46990;-50
2023/11/15 01:52:43;;;;;;;;;0.00;0.00;;;;;16.69;100.00;101131.38;2100624;28;46762;-48
2023/11/15 01:53:44;;;;;;;;;6.00;1.00;;;;;16.68;100.00;101130.50;2102729;28;46914;-52
2023/11/15 01:54:47;;;;;;;;;0.00;0.00;;;;;16.69;100.00;101129.56;2097859;28;46463;-51
2023/11/15 01:55:48;;;;;;;;;1.00;0.00;;;;;16.68;100.00;101126.94;2104549;28;46466;-47
2023/11/15 01:56:49;;;;;;;;;1.25;1.25;;;;;16.69;100.00;101137.59;2105723;28;46653;-51
2023/11/15 01:57:53;;;;;;;;;2.00;0.33;;;;;16.64;100.00;101134.22;2105154;28;46426;-52
2023/11/15 01:58:53;;;;;;;;;1.25;1.25;;;;;16.66;100.00;101128.78;2103182;28;46122;-51
2023/11/15 01:59:54;;;;;;;;;0.00;0.00;;;;;16.66;100.00;101129.66;2099185;28;46407;-53
2023/11/15 02:00:55;;;;;;;;;0.00;0.00;;;;;16.65;100.00;101130.59;2097377;28;46530;-52
2023/11/15 02:01:55;;;;;;;;;2.00;0.00;;;;;16.68;100.00;101129.63;2104773;28;46348;-52
2023/11/15 02:02:56;;;;;;;;;2.67;1.00;;;;;16.72;100.00;101128.56;2105435;28;46492;-52
2023/11/15 02:03:57;;;;;;;;;2.25;0.75;;;;;16.71;100.00;101134.84;2105002;28;46240;-52
2023/11/15 02:04:57;;;;;;;;;2.33;0.00;;;;;16.65;100.00;101138.63;2105536;28;46451;-53
2023/11/15 02:05:59;;;;;;;;;1.33;0.33;;;;;16.65;100.00;101130.59;2096704;28;46716;-49
2023/11/15 02:06:59;;;;;;;;;1.00;0.75;;;;;16.70;100.00;101136.66;2095966;28;46574;-52
2023/11/15 02:08:00;;;;;;;;;2.00;1.00;;;;;16.72;100.00;101134.78;2104995;28;46692;-50
2023/11/15 02:09:00;;;;;;;;;1.67;0.33;;;;;16.71;100.00;101138.41;2105289;28;46804;-54
2023/11/15 02:10:01;;;;;;;;;3.67;0.00;;;;;16.74;100.00;101137.41;2099102;28;46513;-53
2023/11/15 02:11:03;;;;;;;;;1.75;0.75;;;;;16.72;100.00;101132.13;2095960;28;46324;-53
2023/11/15 02:12:04;;;;;;;;;0.75;0.75;;;;;16.72;100.00;101137.47;2096301;28;46627;-52
2023/11/15 02:13:19;;;;;;;;;0.00;0.00;;;;;16.73;100.00;101131.19;2104975;28;46442;-51
2023/11/15 02:14:19;;;;;;;;;0.25;0.25;;;;;16.71;100.00;101127.69;2104776;28;47012;-50
2023/11/15 02:15:21;;;;;;;;;1.33;1.00;;;;;16.73;100.00;101135.66;2102653;28;46620;-50
2023/11/15 02:16:21;;;;;;;;;0.50;0.50;;;;;16.74;100.00;101138.28;2099090;28;46770;-51
2023/11/15 02:17:22;;;;;;;;;1.00;1.00;;;;;16.66;100.00;101135.03;2101313;28;46115;-51
2023/11/15 02:18:25;;;;;;;;;1.00;1.00;;;;;16.71;100.00;101140.22;2095134;28;44978;-50
2023/11/15 02:19:27;;;;;;;;;2.25;0.75;;;;;16.72;100.00;101140.16;2090605;28;46490;-51
2023/11/15 02:20:28;;;;;;;;;1.50;0.75;;;;;16.74;100.00;101143.63;2104540;28;46261;-52
2023/11/15 02:21:29;;;;;;;;;0.75;0.50;;;;;16.74;100.00;101148.13;2104930;28;46292;-49
2023/11/15 02:22:31;;;;;;;;;2.00;0.75;;;;;16.75;100.00;101142.69;2096226;28;46441;-48
2023/11/15 02:23:31;;;;;;;;;0.75;0.75;;;;;16.76;100.00;101149.81;2095996;28;46742;-49
2023/11/15 02:24:32;;;;;;;;;1.00;0.00;;;;;16.66;100.00;101148.44;2101487;28;46478;-48
2023/11/15 02:25:32;;;;;;;;;0.00;0.00;;;;;16.75;100.00;101152.56;2095995;28;46529;-50
2023/11/15 02:26:33;;;;;;;;;1.00;1.00;;;;;16.73;100.00;101143.72;2087647;28;46262;-53
2023/11/15 02:27:33;;;;;;;;;1.00;0.00;;;;;16.75;100.00;101145.38;2095848;28;46821;-53
2023/11/15 02:28:33;;;;;;;;;0.33;0.33;;;;;16.71;100.00;101153.63;2104736;28;46613;-52
2023/11/15 02:29:34;;;;;;;;;0.00;0.00;;;;;16.75;100.00;101153.44;2095779;28;46937;-51
2023/11/15 02:30:34;;;;;;;;;1.67;1.00;;;;;16.68;100.00;101151.94;2095047;28;46720;-48
2023/11/15 02:31:34;;;;;;;;;1.67;1.00;;;;;16.66;100.00;101152.91;2104527;28;46191;-51
2023/11/15 02:32:37;;;;;;;;;0.00;0.00;;;;;16.72;100.00;101150.88;2104809;28;46309;-52
2023/11/15 02:33:38;;;;;;;;;0.00;0.00;;;;;16.70;100.00;101151.88;2103153;27;46561;-54
2023/11/15 02:34:38;;;;;;;;;2.00;1.00;;;;;16.71;100.00;101153.63;2103828;28;46482;-50
2023/11/15 02:35:39;;;;;;;;;2.00;0.33;;;;;16.72;100.00;101150.88;2104645;28;46290;-50
2023/11/15 02:36:39;;;;;;;;;1.00;1.00;;;;;16.71;100.00;101154.50;2105136;28;46420;-53
2023/11/15 02:37:40;;;;;;;;;2.67;1.00;;;;;16.71;100.00;101156.31;2105041;28;46982;-54
2023/11/15 02:38:40;;;;;;;;;0.67;0.67;;;;;16.71;100.00;101157.19;2104685;28;46374;-56
2023/11/15 02:39:40;;;;;;;;;0.00;0.00;;;;;16.72;100.00;101156.22;2104649;28;46509;-52
2023/11/15 02:40:42;;;;;;;;;0.00;0.00;;;;;16.72;100.00;101156.22;2104878;28;46769;-49
2023/11/15 02:41:42;;;;;;;;;1.50;0.00;;;;;16.71;100.00;101151.81;2104969;28;46292;-53
2023/11/15 02:42:42;;;;;;;;;3.00;2.00;;;;;16.72;100.00;101158.91;2104686;28;46527;-53
2023/11/15 02:43:43;;;;;;;;;1.00;0.00;;;;;16.74;100.00;101165.09;2095924;28;46215;-53
2023/11/15 02:44:43;;;;;;;;;2.33;1.00;;;;;16.73;100.00;101163.34;2096048;28;46627;-53
2023/11/15 02:45:43;;;;;;;;;0.67;0.33;;;;;16.75;100.00;101171.31;2104421;28;46182;-54
2023/11/15 02:46:43;;;;;;;;;0.00;0.00;;;;;16.76;100.00;101163.22;2104774;28;46251;-52
2023/11/15 02:47:44;;;;;;;;;0.00;0.00;;;;;16.67;100.00;101176.09;2105053;28;46630;-53
2023/11/15 02:48:44;;;;;;;;;1.33;1.00;;;;;16.70;100.00;101176.00;2104694;28;46158;-53
2023/11/15 02:49:45;;;;;;;;;2.00;0.00;;;;;16.71;100.00;101183.09;2099583;28;46423;-56
2023/11/15 02:50:45;;;;;;;;;1.00;1.00;;;;;16.71;100.00;101175.94;2104637;28;46409;-54
2023/11/15 02:51:49;;;;;;;;;0.00;0.00;;;;;16.63;100.00;101182.47;2095689;28;46444;-54
2023/11/15 02:52:49;;;;;;;;;3.25;0.75;;;;;16.63;100.00;101177.13;2092751;28;46802;-51
2023/11/15 02:53:49;;;;;;;;;4.00;0.00;;;;;16.60;100.00;101175.44;2104814;28;46295;-50
2023/11/15 02:54:50;;;;;;;;;0.00;0.00;;;;;16.67;100.00;101179.69;2105099;28;46937;-50
2023/11/15 02:55:50;;;;;;;;;1.00;1.00;;;;;16.69;100.00;101179.63;2101724;27;46438;-54
2023/11/15 02:56:51;;;;;;;;;2.33;1.00;;;;;16.62;100.00;101184.28;2104432;28;46177;-53
2023/11/15 02:57:51;;;;;;;;;1.33;1.00;;;;;16.67;100.00;101176.09;2104946;28;46239;-54
2023/11/15 02:58:52;;;;;;;;;0.00;0.00;;;;;16.68;100.00;101185.91;2104929;28;46972;-53
2023/11/15 02:59:52;;;;;;;;;2.00;0.33;;;;;16.68;100.00;101186.78;2101241;28;46927;-54
2023/11/15 03:00:53;;;;;;;;;3.67;2.00;;;;;16.67;100.00;101187.72;2103165;28;46796;-50
2023/11/15 03:01:53;;;;;;;;;1.67;1.67;;;;;16.70;100.00;101186.72;2101516;28;46906;-50
2023/11/15 03:02:53;;;;;;;;;1.00;0.67;;;;;16.69;100.00;101190.34;2097227;27;46671;-50
2023/11/15 03:03:53;;;;;;;;;1.00;0.00;;;;;16.67;100.00;101185.03;2102211;28;46910;-50
2023/11/15 03:04:54;;;;;;;;;0.00;0.00;;;;;16.67;100.00;101186.81;2099472;28;46614;-53
2023/11/15 03:05:54;;;;;;;;;0.33;0.33;;;;;16.66;100.00;101180.59;2103152;27;46659;-51
2023/11/15 03:06:54;;;;;;;;;1.67;1.00;;;;;16.66;100.00;101185.06;2104490;28;46625;-54
2023/11/15 03:07:55;;;;;;;;;1.00;1.00;;;;;16.63;100.00;101180.69;2099351;28;46346;-53
2023/11/15 03:08:55;;;;;;;;;0.00;0.00;;;;;16.56;100.00;101186.34;2096020;28;46341;-52
2023/11/15 03:09:55;;;;;;;;;0.00;0.00;;;;;16.65;100.00;101184.19;2098224;28;46447;-49
2023/11/15 03:10:56;;;;;;;;;1.67;0.67;;;;;16.65;100.00;101175.28;2097400;28;46867;-52
2023/11/15 03:11:56;;;;;;;;;0.33;0.00;;;;;16.63;100.00;101174.44;2103539;27;46859;-52
2023/11/15 03:12:57;;;;;;;;;0.67;0.67;;;;;16.61;100.00;101182.56;2099992;28;46300;-48
2023/11/15 03:13:57;;;;;;;;;1.00;1.00;;;;;16.51;100.00;101173.13;2105756;28;46404;-55
2023/11/15 03:14:57;;;;;;;;;0.33;0.33;;;;;16.60;100.00;101182.63;2106175;28;45635;-51
2023/11/15 03:15:58;;;;;;;;;1.00;1.00;;;;;16.60;100.00;101178.13;2099378;28;46643;-53
2023/11/15 03:17:16;;;;;;;;;2.67;0.00;;;;;16.62;100.00;101180.75;2106193;28;47014;-48
2023/11/15 03:18:17;;;;;;;;;1.75;1.75;;;;;16.61;100.00;101177.19;2100716;28;46759;-47
2023/11/15 03:19:17;;;;;;;;;1.25;0.00;;;;;16.60;100.00;101169.22;2104622;28;46618;-53
2023/11/15 03:20:17;;;;;;;;;0.00;0.00;;;;;16.61;100.00;101171.84;2096917;28;46458;-54
2023/11/15 03:21:18;;;;;;;;;1.33;0.00;;;;;16.60;100.00;101169.22;2097253;28;46314;-53
2023/11/15 03:22:18;;;;;;;;;1.00;1.00;;;;;16.61;100.00;101165.59;2106024;28;46259;-54
2023/11/15 03:23:19;;;;;;;;;0.00;0.00;;;;;16.61;100.00;101177.19;2092845;28;46435;-50
2023/11/15 03:24:19;;;;;;;;;0.75;0.75;;;;;16.56;100.00;101186.34;2097100;28;46304;-53
2023/11/15 03:25:20;;;;;;;;;2.00;0.00;;;;;16.60;100.00;101185.28;2097084;28;46214;-54
2023/11/15 03:26:20;;;;;;;;;0.33;0.00;;;;;16.61;100.00;101179.00;2088824;28;46326;-53
2023/11/15 03:27:20;;;;;;;;;1.00;0.00;;;;;16.61;100.00;101179.88;2097114;28;46352;-51
2023/11/15 03:28:21;;;;;;;;;0.00;0.00;;;;;16.54;100.00;101175.69;2099996;28;46846;-52
2023/11/15 03:29:21;;;;;;;;;1.33;1.33;;;;;16.61;100.00;101187.91;2106225;28;46419;-53
2023/11/15 03:30:21;;;;;;;;;1.00;0.00;;;;;16.61;100.00;101181.69;2106067;28;46421;-52
2023/11/15 03:31:21;;;;;;;;;1.00;1.00;;;;;16.61;100.00;101195.06;2105833;28;46759;-54
2023/11/15 03:32:22;;;;;;;;;0.00;0.00;;;;;16.60;100.00;101187.97;2099032;28;46521;-54
2023/11/15 03:33:23;;;;;;;;;2.00;1.00;;;;;16.59;100.00;101188.91;2101739;28;46848;-49
2023/11/15 03:34:24;;;;;;;;;0.00;0.00;;;;;16.53;100.00;101179.31;2105900;28;46640;-48
2023/11/15 03:35:24;;;;;;;;;0.33;0.33;;;;;16.55;100.00;101181.94;2105670;28;46757;-50
2023/11/15 03:36:24;;;;;;;;;1.33;0.33;;;;;16.54;100.00;101191.78;2100028;28;46091;-53
2023/11/15 03:37:25;;;;;;;;;0.33;0.33;;;;;16.54;100.00;101196.25;2106167;28;46654;-49
2023/11/15 03:38:25;;;;;;;;;0.33;0.00;;;;;16.53;100.00;101203.44;2102545;28;46139;-49
2023/11/15 03:39:27;;;;;;;;;0.00;0.00;;;;;16.53;100.00;101195.41;2097899;28;46708;-50
2023/11/15 03:40:27;;;;;;;;;1.00;0.25;;;;;16.50;100.00;101203.53;2105781;28;46371;-48
2023/11/15 03:41:27;;;;;;;;;0.33;0.33;;;;;16.55;100.00;101198.00;2106182;28;45669;-52
2023/11/15 03:42:28;;;;;;;;;0.33;0.00;;;;;16.53;100.00;101195.41;2103612;28;46488;-53
2023/11/15 03:43:29;;;;;;;;;1.00;1.00;;;;;16.55;100.00;101211.41;2104455;28;46939;-52
2023/11/15 03:44:29;;;;;;;;;0.00;0.00;;;;;16.55;100.00;101206.91;2105387;28;46690;-51
2023/11/15 03:45:29;;;;;;;;;0.00;0.00;;;;;16.57;100.00;101209.53;2097907;28;46858;-50
2023/11/15 03:46:30;;;;;;;;;5.67;0.00;;;;;16.56;100.00;101207.78;2102125;28;46417;-50
2023/11/15 03:47:31;;;;;;;;;0.00;0.00;;;;;16.57;100.00;101207.72;2097249;28;46240;-50
2023/11/15 03:48:32;;;;;;;;;0.00;0.00;;;;;16.56;100.00;101205.13;2095799;28;45702;-50
2023/11/15 03:49:33;;;;;;;;;3.00;2.00;;;;;16.55;100.00;101206.91;2105755;28;46191;-53
2023/11/15 03:50:33;;;;;;;;;0.00;0.00;;;;;16.57;100.00;101209.53;2106285;28;47221;-50
2023/11/15 03:51:33;;;;;;;;;1.67;0.33;;;;;16.57;100.00;101207.72;2105971;28;46542;-50
2023/11/15 03:52:34;;;;;;;;;0.33;0.33;;;;;16.54;100.00;101209.66;2109882;27;46515;-50
2023/11/15 03:53:36;;;;;;;;;0.00;0.00;;;;;16.52;100.00;101208.84;2106468;28;46886;-48
2023/11/15 03:54:36;;;;;;;;;1.25;0.75;;;;;16.48;100.00;101206.25;2105977;28;46268;-51
2023/11/15 03:55:36;;;;;;;;;2.67;0.67;;;;;16.48;100.00;101202.72;2105685;28;46725;-50
2023/11/15 03:56:37;;;;;;;;;0.00;0.00;;;;;16.52;100.00;101212.41;2106063;28;45502;-53
2023/11/15 03:57:37;;;;;;;;;0.67;0.67;;;;;16.52;100.00;101207.03;2105945;28;46827;-51
2023/11/15 03:58:37;;;;;;;;;0.67;0.00;;;;;16.54;100.00;101213.22;2105172;28;46071;-52
2023/11/15 03:59:38;;;;;;;;;0.00;0.00;;;;;16.53;100.00;101216.81;2095267;28;46596;-49
2023/11/15 04:00:38;;;;;;;;;0.33;0.33;;;;;16.53;100.00;101213.28;2098191;28;46260;-53
2023/11/15 04:01:39;;;;;;;;;1.33;0.33;;;;;16.45;100.00;101213.56;2105601;28;46782;-51
2023/11/15 04:02:39;;;;;;;;;1.25;0.00;;;;;16.48;100.00;101216.97;2102004;28;47544;-53
2023/11/15 04:03:40;;;;;;;;;0.67;0.33;;;;;16.52;100.00;101208.84;2097980;28;45920;-50
2023/11/15 04:04:40;;;;;;;;;2.33;0.00;;;;;16.53;100.00;101221.31;2098409;28;46732;-51
2023/11/15 04:05:41;;;;;;;;;0.33;0.33;;;;;16.52;100.00;101217.75;2103025;28;46649;-52
2023/11/15 04:06:41;;;;;;;;;0.00;0.00;;;;;16.52;100.00;101215.09;2105897;28;46299;-52
2023/11/15 04:07:42;;;;;;;;;1.33;1.33;;;;;16.53;100.00;101216.81;2100088;28;46850;-51
2023/11/15 04:08:42;;;;;;;;;2.33;0.33;;;;;16.52;100.00;101209.72;2099043;28;46337;-53
2023/11/15 04:09:42;;;;;;;;;1.00;0.00;;;;;16.46;100.00;101216.16;2105705;28;46814;-49
2023/11/15 04:10:43;;;;;;;;;0.00;0.00;;;;;16.51;100.00;101210.63;2106097;28;46610;-54
2023/11/15 04:11:43;;;;;;;;;0.00;0.00;;;;;16.51;100.00;101209.75;2105833;28;47241;-48
2023/11/15 04:12:43;;;;;;;;;2.00;0.33;;;;;16.52;100.00;101212.41;2105992;28;45128;-53
2023/11/15 04:13:43;;;;;;;;;0.00;0.00;;;;;16.53;100.00;101211.47;2105681;28;46548;-53
2023/11/15 04:14:44;;;;;;;;;0.33;0.33;;;;;16.53;100.00;101215.94;2101848;28;46259;-53
2023/11/15 04:15:44;;;;;;;;;0.67;0.00;;;;;16.52;100.00;101214.22;2103439;28;46674;-49
2023/11/15 04:16:45;;;;;;;;;0.00;0.00;;;;;16.51;100.00;101204.41;2105649;28;46614;-54
2023/11/15 04:17:45;;;;;;;;;0.33;0.33;;;;;16.49;100.00;101205.34;2106013;28;46388;-52
2023/11/15 04:18:46;;;;;;;;;0.00;0.00;;;;;16.46;100.00;101210.81;2105164;28;46338;-52
2023/11/15 04:19:46;;;;;;;;;1.33;0.33;;;;;16.51;100.00;101213.31;2104449;28;46479;-49
2023/11/15 04:20:46;;;;;;;;;0.00;0.00;;;;;16.40;100.00;101210.19;2097133;28;46698;-49
2023/11/15 04:21:48;;;;;;;;;0.00;0.00;;;;;16.46;100.00;101199.22;2105528;28;46149;-49
2023/11/15 04:22:48;;;;;;;;;0.50;0.00;;;;;16.47;100.00;101201.84;2104724;28;45987;-54
2023/11/15 04:23:48;;;;;;;;;0.33;0.33;;;;;16.48;100.00;101202.72;2096896;28;46868;-51
2023/11/15 04:24:52;;;;;;;;;1.67;1.00;;;;;16.48;100.00;101202.72;2099885;28;46209;-55
2023/11/15 04:25:52;;;;;;;;;1.00;1.00;;;;;16.42;100.00;101201.16;2105136;28;46235;-51
2023/11/15 04:26:53;;;;;;;;;0.00;0.00;;;;;16.39;100.00;101211.13;2103358;28;46426;-52
2023/11/15 04:27:53;;;;;;;;;0.00;0.00;;;;;16.40;100.00;101211.06;2096953;28;45664;-51
2023/11/15 04:28:53;;;;;;;;;0.00;0.00;;;;;16.42;100.00;101209.19;2096770;28;45549;-55
2023/11/15 04:29:54;;;;;;;;;0.00;0.00;;;;;16.47;100.00;101209.00;2105016;28;46387;-55
2023/11/15 04:30:54;;;;;;;;;0.67;0.00;;;;;16.49;100.00;101215.19;2102182;28;46888;-53
2023/11/15 04:31:55;;;;;;;;;2.67;1.00;;;;;16.49;100.00;101218.72;2092939;28;46658;-53
2023/11/15 04:32:55;;;;;;;;;0.00;0.00;;;;;16.47;100.00;101217.91;2096765;28;46394;-48
2023/11/15 04:33:55;;;;;;;;;0.00;0.00;;;;;16.46;100.00;101221.53;2100549;28;46835;-50
2023/11/15 04:34:56;;;;;;;;;0.33;0.33;;;;;16.47;100.00;101222.41;2100651;28;46625;-53
2023/11/15 04:35:59;;;;;;;;;0.00;0.00;;;;;16.49;100.00;101223.22;2097401;28;45149;-51
2023/11/15 04:37:00;;;;;;;;;0.00;0.00;;;;;16.40;100.00;101220.91;2106111;28;47138;-53
2023/11/15 04:38:03;;;;;;;;;3.00;0.33;;;;;16.36;100.00;101217.44;2105814;28;46318;-54
2023/11/15 04:39:07;;;;;;;;;0.00;0.00;;;;;16.40;100.00;101226.25;2105854;28;46383;-53
2023/11/15 04:40:09;;;;;;;;;0.25;0.00;;;;;16.43;100.00;101226.13;2097595;28;46824;-50